sensor_id;sensor_type;location;lat;lon;timestamp;temperature;humidity
21612;DHT22;47005;52.292;13.452;2024-03-23T00:54:19;10.90;99.90
21612;DHT22;47005;52.292;13.452;2024-03-23T00:56:45;10.80;99.90
21612;DHT22;47005;52.292;13.452;2024-03-23T00:59:10;10.80;99.90
21612;DHT22;47005;52.292;13.452;2024-03-23T01:01:37;10.80;99.90
21612;DHT22;47005;52.292;13.452;2024-03-23T01:04:03;10.80;99.90
21612;DHT22;47005;52.292;13.452;2024-03-23T01:06:28;10.80;99.90
21612;DHT22;47005;52.292;13.452;2024-03-23T01:08:54;10.80;99.90
21612;DHT22;47005;52.292;13.452;2024-03-23T01:11:19;10.80;99.90
21612;DHT22;47005;52.292;13.452;2024-03-23T01:13:45;10.80;99.90
21612;DHT22;47005;52.292;13.452;2024-03-23T01:16:11;10.80;99.90
21612;DHT22;47005;52.292;13.452;2024-03-23T01:18:36;10.70;99.90
21612;DHT22;47005;52.292;13.452;2024-03-23T01:21:02;10.70;99.90
21612;DHT22;47005;52.292;13.452;2024-03-23T01:23:28;10.70;99.90
21612;DHT22;47005;52.292;13.452;2024-03-23T01:25:54;10.80;99.90
21612;DHT22;47005;52.292;13.452;2024-03-23T01:28:20;10.70;99.90
21612;DHT22;47005;52.292;13.452;2024-03-23T01:30:46;10.70;99.90
21612;DHT22;47005;52.292;13.452;2024-03-23T01:33:12;10.80;99.90
21612;DHT22;47005;52.292;13.452;2024-03-23T01:35:38;10.70;99.90
21612;DHT22;47005;52.292;13.452;2024-03-23T01:38:04;10.70;99.90
21612;DHT22;47005;52.292;13.452;2024-03-23T01:40:29;10.70;99.90
21612;DHT22;47005;52.292;13.452;2024-03-23T01:43:05;10.70;99.90
21612;DHT22;47005;52.292;13.452;2024-03-23T01:45:33;10.70;99.90
21612;DHT22;47005;52.292;13.452;2024-03-23T01:47:59;10.70;99.90
21612;DHT22;47005;52.292;13.452;2024-03-23T01:50:25;10.70;99.90
21612;DHT22;47005;52.292;13.452;2024-03-23T01:52:52;10.70;99.90
21612;DHT22;47005;52.292;13.452;2024-03-23T01:55:18;10.70;99.90
21612;DHT22;47005;52.292;13.452;2024-03-23T01:57:43;10.70;99.90
21612;DHT22;47005;52.292;13.452;2024-03-23T02:00:09;10.70;99.90
21612;DHT22;47005;52.292;13.452;2024-03-23T02:02:46;10.70;99.90
21612;DHT22;47005;52.292;13.452;2024-03-23T02:05:13;10.70;99.90
21612;DHT22;47005;52.292;13.452;2024-03-23T02:07:39;10.60;99.90
21612;DHT22;47005;52.292;13.452;2024-03-23T02:10:10;10.70;99.90
21612;DHT22;47005;52.292;13.452;2024-03-23T02:12:36;10.60;99.90
21612;DHT22;47005;52.292;13.452;2024-03-23T02:15:02;10.60;99.90
21612;DHT22;47005;52.292;13.452;2024-03-23T02:17:31;10.70;99.90
21612;DHT22;47005;52.292;13.452;2024-03-23T02:19:57;10.60;99.90
21612;DHT22;47005;52.292;13.452;2024-03-23T02:22:23;10.70;99.90
21612;DHT22;47005;52.292;13.452;2024-03-23T02:24:48;10.60;99.90
21612;DHT22;47005;52.292;13.452;2024-03-23T02:27:14;10.70;99.90
21612;DHT22;47005;52.292;13.452;2024-03-23T02:29:40;10.60;99.90
21612;DHT22;47005;52.292;13.452;2024-03-23T02:32:06;10.60;99.90
21612;DHT22;47005;52.292;13.452;2024-03-23T02:34:31;10.60;99.90
21612;DHT22;47005;52.292;13.452;2024-03-23T02:36:57;10.60;99.90
21612;DHT22;47005;52.292;13.452;2024-03-23T02:39:23;10.60;99.90
21612;DHT22;47005;52.292;13.452;2024-03-23T02:41:48;10.60;99.90
21612;DHT22;47005;52.292;13.452;2024-03-23T02:44:14;10.60;99.90
21612;DHT22;47005;52.292;13.452;2024-03-23T02:46:40;10.60;99.90
21612;DHT22;47005;52.292;13.452;2024-03-23T02:49:06;10.60;99.90
21612;DHT22;47005;52.292;13.452;2024-03-23T02:51:31;10.60;99.90
21612;DHT22;47005;52.292;13.452;2024-03-23T02:53:57;10.60;99.90
21612;DHT22;47005;52.292;13.452;2024-03-23T02:56:23;10.60;99.90
21612;DHT22;47005;52.292;13.452;2024-03-23T02:58:48;10.60;99.90
21612;DHT22;47005;52.292;13.452;2024-03-23T03:01:14;10.60;99.90
21612;DHT22;47005;52.292;13.452;2024-03-23T03:03:40;10.60;99.90
21612;DHT22;47005;52.292;13.452;2024-03-23T03:06:05;10.50;99.90
21612;DHT22;47005;52.292;13.452;2024-03-23T03:08:31;10.50;99.90
21612;DHT22;47005;52.292;13.452;2024-03-23T03:10:57;10.50;99.90
21612;DHT22;47005;52.292;13.452;2024-03-23T03:13:22;10.50;99.90
21612;DHT22;47005;52.292;13.452;2024-03-23T03:15:48;10.50;99.90
21612;DHT22;47005;52.292;13.452;2024-03-23T03:18:13;10.50;99.90
21612;DHT22;47005;52.292;13.452;2024-03-23T03:20:39;10.50;99.90
21612;DHT22;47005;52.292;13.452;2024-03-23T03:23:06;10.50;99.90
21612;DHT22;47005;52.292;13.452;2024-03-23T03:25:31;10.50;99.90
21612;DHT22;47005;52.292;13.452;2024-03-23T03:27:57;10.50;99.90
21612;DHT22;47005;52.292;13.452;2024-03-23T03:30:23;10.50;99.90
21612;DHT22;47005;52.292;13.452;2024-03-23T03:32:49;10.40;99.90
21612;DHT22;47005;52.292;13.452;2024-03-23T03:35:15;10.40;99.90
21612;DHT22;47005;52.292;13.452;2024-03-23T03:37:41;10.40;99.90
21612;DHT22;47005;52.292;13.452;2024-03-23T03:40:07;10.50;99.90
21612;DHT22;47005;52.292;13.452;2024-03-23T03:42:34;10.40;99.90
21612;DHT22;47005;52.292;13.452;2024-03-23T03:45:00;10.40;99.90
21612;DHT22;47005;52.292;13.452;2024-03-23T03:47:25;10.40;99.90
21612;DHT22;47005;52.292;13.452;2024-03-23T03:49:51;10.40;99.90
21612;DHT22;47005;52.292;13.452;2024-03-23T03:52:17;10.40;99.90
21612;DHT22;47005;52.292;13.452;2024-03-23T03:54:42;10.40;99.90
21612;DHT22;47005;52.292;13.452;2024-03-23T03:57:08;10.40;99.90
21612;DHT22;47005;52.292;13.452;2024-03-23T03:59:33;10.40;99.90
21612;DHT22;47005;52.292;13.452;2024-03-23T04:01:59;10.40;99.90
21612;DHT22;47005;52.292;13.452;2024-03-23T04:04:25;10.40;99.90
21612;DHT22;47005;52.292;13.452;2024-03-23T04:07:01;10.40;99.90
21612;DHT22;47005;52.292;13.452;2024-03-23T04:09:26;10.40;99.90
21612;DHT22;47005;52.292;13.452;2024-03-23T04:11:52;10.30;99.90
21612;DHT22;47005;52.292;13.452;2024-03-23T04:14:18;10.30;99.90
21612;DHT22;47005;52.292;13.452;2024-03-23T04:16:43;10.30;99.90
21612;DHT22;47005;52.292;13.452;2024-03-23T04:19:09;10.30;99.90
21612;DHT22;47005;52.292;13.452;2024-03-23T04:21:36;10.30;99.90
21612;DHT22;47005;52.292;13.452;2024-03-23T04:24:02;10.30;99.90
21612;DHT22;47005;52.292;13.452;2024-03-23T04:26:28;10.30;99.90
21612;DHT22;47005;52.292;13.452;2024-03-23T04:28:53;10.30;99.90
21612;DHT22;47005;52.292;13.452;2024-03-23T04:31:19;10.30;99.90
21612;DHT22;47005;52.292;13.452;2024-03-23T04:33:45;10.30;99.90
21612;DHT22;47005;52.292;13.452;2024-03-23T04:36:10;10.30;99.90
21612;DHT22;47005;52.292;13.452;2024-03-23T04:38:36;10.30;99.90
21612;DHT22;47005;52.292;13.452;2024-03-23T04:41:02;10.30;99.90
21612;DHT22;47005;52.292;13.452;2024-03-23T04:43:27;10.30;99.90
21612;DHT22;47005;52.292;13.452;2024-03-23T04:45:53;10.20;99.90
21612;DHT22;47005;52.292;13.452;2024-03-23T04:48:21;10.30;99.90
21612;DHT22;47005;52.292;13.452;2024-03-23T04:50:48;10.30;99.90
21612;DHT22;47005;52.292;13.452;2024-03-23T04:53:14;10.30;99.90
21612;DHT22;47005;52.292;13.452;2024-03-23T04:55:41;10.20;99.90
21612;DHT22;47005;52.292;13.452;2024-03-23T04:58:07;10.20;99.90
21612;DHT22;47005;52.292;13.452;2024-03-23T05:00:32;10.20;99.90
21612;DHT22;47005;52.292;13.452;2024-03-23T05:02:58;10.10;99.90
21612;DHT22;47005;52.292;13.452;2024-03-23T05:05:23;10.10;99.90
21612;DHT22;47005;52.292;13.452;2024-03-23T05:07:49;10.10;99.90
21612;DHT22;47005;52.292;13.452;2024-03-23T05:10:15;10.10;99.90
21612;DHT22;47005;52.292;13.452;2024-03-23T05:12:40;10.10;99.90
21612;DHT22;47005;52.292;13.452;2024-03-23T05:15:06;10.10;99.90
21612;DHT22;47005;52.292;13.452;2024-03-23T05:17:35;10.00;99.90
21612;DHT22;47005;52.292;13.452;2024-03-23T05:20:01;10.00;99.90
21612;DHT22;47005;52.292;13.452;2024-03-23T05:22:28;10.00;99.90
21612;DHT22;47005;52.292;13.452;2024-03-23T05:24:54;10.00;99.90
21612;DHT22;47005;52.292;13.452;2024-03-23T05:27:19;10.00;99.90
21612;DHT22;47005;52.292;13.452;2024-03-23T05:29:45;9.90;99.90
21612;DHT22;47005;52.292;13.452;2024-03-23T05:32:11;9.90;99.90
21612;DHT22;47005;52.292;13.452;2024-03-23T05:34:36;9.90;99.90
21612;DHT22;47005;52.292;13.452;2024-03-23T05:37:02;9.80;99.90
21612;DHT22;47005;52.292;13.452;2024-03-23T05:39:28;9.80;99.90
21612;DHT22;47005;52.292;13.452;2024-03-23T05:41:53;9.80;99.90
21612;DHT22;47005;52.292;13.452;2024-03-23T05:44:19;9.70;99.90
21612;DHT22;47005;52.292;13.452;2024-03-23T05:46:45;9.70;99.90
21612;DHT22;47005;52.292;13.452;2024-03-23T05:49:14;9.60;99.90
21612;DHT22;47005;52.292;13.452;2024-03-23T05:51:39;9.60;99.90
21612;DHT22;47005;52.292;13.452;2024-03-23T05:54:05;9.60;99.90
21612;DHT22;47005;52.292;13.452;2024-03-23T05:56:31;9.60;99.90
21612;DHT22;47005;52.292;13.452;2024-03-23T05:58:57;9.60;99.90
21612;DHT22;47005;52.292;13.452;2024-03-23T06:01:22;9.60;99.90
21612;DHT22;47005;52.292;13.452;2024-03-23T06:03:48;9.50;99.90
21612;DHT22;47005;52.292;13.452;2024-03-23T06:06:14;9.60;99.90
21612;DHT22;47005;52.292;13.452;2024-03-23T06:08:39;9.60;99.90
21612;DHT22;47005;52.292;13.452;2024-03-23T06:11:05;9.60;99.90
21612;DHT22;47005;52.292;13.452;2024-03-23T06:13:34;9.60;99.90
21612;DHT22;47005;52.292;13.452;2024-03-23T06:16:03;9.60;99.90
21612;DHT22;47005;52.292;13.452;2024-03-23T06:18:29;9.60;99.90
21612;DHT22;47005;52.292;13.452;2024-03-23T06:20:55;9.60;99.90
21612;DHT22;47005;52.292;13.452;2024-03-23T06:23:20;9.60;99.90
21612;DHT22;47005;52.292;13.452;2024-03-23T06:25:46;9.70;99.90
21612;DHT22;47005;52.292;13.452;2024-03-23T06:28:12;9.70;99.90
21612;DHT22;47005;52.292;13.452;2024-03-23T06:30:38;9.70;99.90
21612;DHT22;47005;52.292;13.452;2024-03-23T06:33:03;9.70;99.90
21612;DHT22;47005;52.292;13.452;2024-03-23T06:35:31;9.70;99.90
21612;DHT22;47005;52.292;13.452;2024-03-23T06:37:56;9.70;99.90
21612;DHT22;47005;52.292;13.452;2024-03-23T06:40:23;9.70;99.90
21612;DHT22;47005;52.292;13.452;2024-03-23T06:42:49;9.70;99.90
21612;DHT22;47005;52.292;13.452;2024-03-23T06:45:16;9.70;99.90
21612;DHT22;47005;52.292;13.452;2024-03-23T06:47:41;9.70;99.90
21612;DHT22;47005;52.292;13.452;2024-03-23T06:50:07;9.70;99.90
21612;DHT22;47005;52.292;13.452;2024-03-23T06:52:33;9.70;99.90
21612;DHT22;47005;52.292;13.452;2024-03-23T06:54:58;9.70;99.90
21612;DHT22;47005;52.292;13.452;2024-03-23T06:57:24;9.70;99.90
21612;DHT22;47005;52.292;13.452;2024-03-23T06:59:50;9.70;99.90
21612;DHT22;47005;52.292;13.452;2024-03-23T07:02:16;9.70;99.90
21612;DHT22;47005;52.292;13.452;2024-03-23T07:04:41;9.70;99.90
21612;DHT22;47005;52.292;13.452;2024-03-23T07:07:07;9.70;99.90
21612;DHT22;47005;52.292;13.452;2024-03-23T07:09:33;9.70;99.90
21612;DHT22;47005;52.292;13.452;2024-03-23T07:11:59;9.70;99.90
21612;DHT22;47005;52.292;13.452;2024-03-23T07:14:25;9.70;99.90
21612;DHT22;47005;52.292;13.452;2024-03-23T07:16:51;9.70;99.90
21612;DHT22;47005;52.292;13.452;2024-03-23T07:19:17;9.70;99.90
21612;DHT22;47005;52.292;13.452;2024-03-23T07:21:44;9.70;99.90
21612;DHT22;47005;52.292;13.452;2024-03-23T07:24:10;9.70;99.90
21612;DHT22;47005;52.292;13.452;2024-03-23T07:26:36;9.60;99.90
21612;DHT22;47005;52.292;13.452;2024-03-23T07:29:01;9.60;99.90
21612;DHT22;47005;52.292;13.452;2024-03-23T07:31:27;9.60;99.90
21612;DHT22;47005;52.292;13.452;2024-03-23T07:33:53;9.60;99.90
21612;DHT22;47005;52.292;13.452;2024-03-23T07:36:19;9.60;99.90
21612;DHT22;47005;52.292;13.452;2024-03-23T07:38:44;9.60;99.90
21612;DHT22;47005;52.292;13.452;2024-03-23T07:41:17;9.70;99.90
21612;DHT22;47005;52.292;13.452;2024-03-23T07:43:43;9.70;99.90
21612;DHT22;47005;52.292;13.452;2024-03-23T07:46:09;9.60;99.90
21612;DHT22;47005;52.292;13.452;2024-03-23T07:48:35;9.60;99.90
21612;DHT22;47005;52.292;13.452;2024-03-23T07:53:37;9.60;99.90
21612;DHT22;47005;52.292;13.452;2024-03-23T07:56:06;9.60;99.90
21612;DHT22;47005;52.292;13.452;2024-03-23T07:58:32;9.60;99.90
21612;DHT22;47005;52.292;13.452;2024-03-23T08:01:05;9.50;99.90
21612;DHT22;47005;52.292;13.452;2024-03-23T08:03:33;9.50;99.90
21612;DHT22;47005;52.292;13.452;2024-03-23T08:06:15;9.50;99.90
21612;DHT22;47005;52.292;13.452;2024-03-23T08:08:43;9.50;99.90
21612;DHT22;47005;52.292;13.452;2024-03-23T08:11:08;9.50;99.90
21612;DHT22;47005;52.292;13.452;2024-03-23T08:13:35;9.40;99.90
21612;DHT22;47005;52.292;13.452;2024-03-23T08:16:02;9.40;99.90
21612;DHT22;47005;52.292;13.452;2024-03-23T08:18:29;9.40;99.90
21612;DHT22;47005;52.292;13.452;2024-03-23T08:21:02;9.30;99.90
21612;DHT22;47005;52.292;13.452;2024-03-23T08:23:30;9.30;99.90
21612;DHT22;47005;52.292;13.452;2024-03-23T08:25:59;9.30;99.90
21612;DHT22;47005;52.292;13.452;2024-03-23T08:28:25;9.30;99.90
21612;DHT22;47005;52.292;13.452;2024-03-23T08:30:55;9.20;99.90
21612;DHT22;47005;52.292;13.452;2024-03-23T08:33:21;9.20;99.90
21612;DHT22;47005;52.292;13.452;2024-03-23T08:35:57;9.20;99.90
21612;DHT22;47005;52.292;13.452;2024-03-23T08:38:23;9.20;99.90
21612;DHT22;47005;52.292;13.452;2024-03-23T08:40:59;9.20;99.90
21612;DHT22;47005;52.292;13.452;2024-03-23T08:43:25;9.20;99.90
21612;DHT22;47005;52.292;13.452;2024-03-23T08:45:52;9.20;99.90
21612;DHT22;47005;52.292;13.452;2024-03-23T08:48:19;9.20;99.90
21612;DHT22;47005;52.292;13.452;2024-03-23T08:50:46;9.20;99.90
21612;DHT22;47005;52.292;13.452;2024-03-23T08:53:12;9.20;99.90
21612;DHT22;47005;52.292;13.452;2024-03-23T08:55:37;9.20;99.90
21612;DHT22;47005;52.292;13.452;2024-03-23T08:58:03;9.20;99.90
21612;DHT22;47005;52.292;13.452;2024-03-23T09:00:29;9.20;99.90
21612;DHT22;47005;52.292;13.452;2024-03-23T09:02:55;9.20;99.90
21612;DHT22;47005;52.292;13.452;2024-03-23T09:05:22;9.20;99.90
21612;DHT22;47005;52.292;13.452;2024-03-23T09:07:49;9.20;99.90
21612;DHT22;47005;52.292;13.452;2024-03-23T09:10:15;9.20;99.90
21612;DHT22;47005;52.292;13.452;2024-03-23T09:12:40;9.20;99.90
21612;DHT22;47005;52.292;13.452;2024-03-23T09:15:06;9.20;99.90
21612;DHT22;47005;52.292;13.452;2024-03-23T09:17:32;9.20;99.90
21612;DHT22;47005;52.292;13.452;2024-03-23T09:19:58;9.20;99.90
21612;DHT22;47005;52.292;13.452;2024-03-23T09:22:23;9.20;99.90
21612;DHT22;47005;52.292;13.452;2024-03-23T09:24:49;9.20;99.90
21612;DHT22;47005;52.292;13.452;2024-03-23T09:27:15;9.10;99.90
21612;DHT22;47005;52.292;13.452;2024-03-23T09:29:40;9.10;99.90
21612;DHT22;47005;52.292;13.452;2024-03-23T09:32:06;9.00;99.90
21612;DHT22;47005;52.292;13.452;2024-03-23T09:34:31;9.00;99.90
21612;DHT22;47005;52.292;13.452;2024-03-23T09:36:57;9.00;99.90
21612;DHT22;47005;52.292;13.452;2024-03-23T09:39:23;8.90;99.90
21612;DHT22;47005;52.292;13.452;2024-03-23T09:41:48;8.80;99.90
21612;DHT22;47005;52.292;13.452;2024-03-23T09:44:14;8.70;99.90
21612;DHT22;47005;52.292;13.452;2024-03-23T09:46:40;8.70;99.90
21612;DHT22;47005;52.292;13.452;2024-03-23T09:49:09;8.70;99.90
21612;DHT22;47005;52.292;13.452;2024-03-23T09:51:37;8.60;99.90
21612;DHT22;47005;52.292;13.452;2024-03-23T09:54:03;8.60;99.90
21612;DHT22;47005;52.292;13.452;2024-03-23T09:56:29;8.50;99.90
21612;DHT22;47005;52.292;13.452;2024-03-23T09:59:01;8.50;99.90
21612;DHT22;47005;52.292;13.452;2024-03-23T10:01:30;8.50;99.90
21612;DHT22;47005;52.292;13.452;2024-03-23T10:03:55;8.40;99.90
21612;DHT22;47005;52.292;13.452;2024-03-23T10:06:24;8.30;99.90
21612;DHT22;47005;52.292;13.452;2024-03-23T10:08:51;8.30;99.90
21612;DHT22;47005;52.292;13.452;2024-03-23T10:11:17;8.20;99.90
21612;DHT22;47005;52.292;13.452;2024-03-23T10:13:43;8.20;99.90
21612;DHT22;47005;52.292;13.452;2024-03-23T10:18:38;8.00;99.90
21612;DHT22;47005;52.292;13.452;2024-03-23T10:21:09;8.10;99.90
21612;DHT22;47005;52.292;13.452;2024-03-23T10:23:37;8.00;99.90
21612;DHT22;47005;52.292;13.452;2024-03-23T10:28:57;7.90;99.90
21612;DHT22;47005;52.292;13.452;2024-03-23T10:31:34;7.90;99.90
21612;DHT22;47005;52.292;13.452;2024-03-23T10:34:03;7.80;99.90
21612;DHT22;47005;52.292;13.452;2024-03-23T10:36:29;7.80;99.90
21612;DHT22;47005;52.292;13.452;2024-03-23T10:38:56;7.80;99.90
21612;DHT22;47005;52.292;13.452;2024-03-23T10:41:28;7.80;99.90
21612;DHT22;47005;52.292;13.452;2024-03-23T10:43:57;7.80;99.90
21612;DHT22;47005;52.292;13.452;2024-03-23T10:46:23;7.80;99.90
21612;DHT22;47005;52.292;13.452;2024-03-23T10:48:49;7.80;99.90
21612;DHT22;47005;52.292;13.452;2024-03-23T10:51:15;7.70;99.90
21612;DHT22;47005;52.292;13.452;2024-03-23T10:53:41;7.70;99.90
21612;DHT22;47005;52.292;13.452;2024-03-23T10:56:07;7.60;99.90
21612;DHT22;47005;52.292;13.452;2024-03-23T11:01:03;7.60;99.90
21612;DHT22;47005;52.292;13.452;2024-03-23T11:03:36;7.70;99.90
21612;DHT22;47005;52.292;13.452;2024-03-23T11:06:03;7.60;99.90
21612;DHT22;47005;52.292;13.452;2024-03-23T11:08:48;7.60;99.90
21612;DHT22;47005;52.292;13.452;2024-03-23T11:11:18;7.60;99.90
21612;DHT22;47005;52.292;13.452;2024-03-23T11:13:51;7.60;99.90
21612;DHT22;47005;52.292;13.452;2024-03-23T11:16:28;7.50;99.90
21612;DHT22;47005;52.292;13.452;2024-03-23T11:19:35;7.50;99.90
21612;DHT22;47005;52.292;13.452;2024-03-23T11:22:04;7.50;99.90
21612;DHT22;47005;52.292;13.452;2024-03-23T11:24:31;7.60;99.90
21612;DHT22;47005;52.292;13.452;2024-03-23T11:26:57;7.60;99.90
21612;DHT22;47005;52.292;13.452;2024-03-23T11:29:26;7.60;99.90
21612;DHT22;47005;52.292;13.452;2024-03-23T11:31:52;7.60;99.90
21612;DHT22;47005;52.292;13.452;2024-03-23T11:34:19;7.60;99.90
21612;DHT22;47005;52.292;13.452;2024-03-23T11:36:45;7.60;99.90
21612;DHT22;47005;52.292;13.452;2024-03-23T11:39:14;7.60;99.90
21612;DHT22;47005;52.292;13.452;2024-03-23T11:44:16;7.60;99.90
21612;DHT22;47005;52.292;13.452;2024-03-23T11:46:42;7.60;99.90
21612;DHT22;47005;52.292;13.452;2024-03-23T11:49:20;7.60;99.90
21612;DHT22;47005;52.292;13.452;2024-03-23T11:51:47;7.60;99.90
21612;DHT22;47005;52.292;13.452;2024-03-23T11:54:13;7.70;99.90
21612;DHT22;47005;52.292;13.452;2024-03-23T11:56:39;7.70;99.90
21612;DHT22;47005;52.292;13.452;2024-03-23T11:59:06;7.80;99.90
21612;DHT22;47005;52.292;13.452;2024-03-23T12:01:31;7.70;99.90
21612;DHT22;47005;52.292;13.452;2024-03-23T12:03:57;7.80;99.90
21612;DHT22;47005;52.292;13.452;2024-03-23T12:06:22;7.80;99.90
21612;DHT22;47005;52.292;13.452;2024-03-23T12:08:48;7.90;99.90
21612;DHT22;47005;52.292;13.452;2024-03-23T12:11:18;7.90;99.90
21612;DHT22;47005;52.292;13.452;2024-03-23T12:13:45;7.90;99.90
21612;DHT22;47005;52.292;13.452;2024-03-23T12:18:42;8.00;99.90
21612;DHT22;47005;52.292;13.452;2024-03-23T12:21:08;8.00;99.90
21612;DHT22;47005;52.292;13.452;2024-03-23T12:23:34;8.10;99.90
21612;DHT22;47005;52.292;13.452;2024-03-23T12:26:00;8.00;99.90
21612;DHT22;47005;52.292;13.452;2024-03-23T12:28:26;8.10;99.90
21612;DHT22;47005;52.292;13.452;2024-03-23T12:30:52;8.10;99.90
21612;DHT22;47005;52.292;13.452;2024-03-23T12:33:20;8.20;99.90
21612;DHT22;47005;52.292;13.452;2024-03-23T12:35:45;8.20;99.90
21612;DHT22;47005;52.292;13.452;2024-03-23T12:38:11;8.20;99.90
21612;DHT22;47005;52.292;13.452;2024-03-23T12:40:36;8.20;99.90
21612;DHT22;47005;52.292;13.452;2024-03-23T12:43:02;8.20;99.90
21612;DHT22;47005;52.292;13.452;2024-03-23T12:45:28;8.20;99.90
21612;DHT22;47005;52.292;13.452;2024-03-23T12:47:53;8.30;99.90
21612;DHT22;47005;52.292;13.452;2024-03-23T12:50:19;8.30;99.90
21612;DHT22;47005;52.292;13.452;2024-03-23T12:52:45;8.30;99.90
21612;DHT22;47005;52.292;13.452;2024-03-23T12:55:11;8.30;99.90
21612;DHT22;47005;52.292;13.452;2024-03-23T12:57:37;8.30;99.90
21612;DHT22;47005;52.292;13.452;2024-03-23T13:00:03;8.40;99.90
21612;DHT22;47005;52.292;13.452;2024-03-23T13:02:29;8.40;99.90
21612;DHT22;47005;52.292;13.452;2024-03-23T13:04:55;8.50;99.90
21612;DHT22;47005;52.292;13.452;2024-03-23T13:07:22;8.50;99.90
21612;DHT22;47005;52.292;13.452;2024-03-23T13:09:51;8.60;99.90
21612;DHT22;47005;52.292;13.452;2024-03-23T13:12:18;8.60;99.90
21612;DHT22;47005;52.292;13.452;2024-03-23T13:14:47;8.60;99.90
21612;DHT22;47005;52.292;13.452;2024-03-23T13:17:13;8.70;99.90
21612;DHT22;47005;52.292;13.452;2024-03-23T13:19:39;8.70;99.90
21612;DHT22;47005;52.292;13.452;2024-03-23T13:22:05;8.80;99.90
21612;DHT22;47005;52.292;13.452;2024-03-23T13:24:31;8.80;99.90
21612;DHT22;47005;52.292;13.452;2024-03-23T13:26:57;8.90;99.90
21612;DHT22;47005;52.292;13.452;2024-03-23T13:29:23;8.90;99.90
21612;DHT22;47005;52.292;13.452;2024-03-23T13:31:50;9.00;99.90
21612;DHT22;47005;52.292;13.452;2024-03-23T13:34:16;9.00;99.90
21612;DHT22;47005;52.292;13.452;2024-03-23T13:36:45;9.00;99.90
21612;DHT22;47005;52.292;13.452;2024-03-23T13:39:12;9.10;99.90
21612;DHT22;47005;52.292;13.452;2024-03-23T13:44:05;9.20;99.90
21612;DHT22;47005;52.292;13.452;2024-03-23T13:46:31;9.20;99.90
21612;DHT22;47005;52.292;13.452;2024-03-23T13:48:57;9.30;99.90
21612;DHT22;47005;52.292;13.452;2024-03-23T13:51:26;9.50;99.90
21612;DHT22;47005;52.292;13.452;2024-03-23T13:53:53;9.50;99.90
21612;DHT22;47005;52.292;13.452;2024-03-23T13:56:20;9.70;99.90
21612;DHT22;47005;52.292;13.452;2024-03-23T13:58:46;9.70;99.90
21612;DHT22;47005;52.292;13.452;2024-03-23T14:01:13;9.90;99.90
21612;DHT22;47005;52.292;13.452;2024-03-23T14:03:39;10.00;99.90
21612;DHT22;47005;52.292;13.452;2024-03-23T14:06:06;10.10;99.90
21612;DHT22;47005;52.292;13.452;2024-03-23T14:08:34;10.30;99.90
21612;DHT22;47005;52.292;13.452;2024-03-23T14:11:01;10.30;99.90
21612;DHT22;47005;52.292;13.452;2024-03-23T14:13:28;10.40;99.90
21612;DHT22;47005;52.292;13.452;2024-03-23T14:15:54;10.60;99.90
21612;DHT22;47005;52.292;13.452;2024-03-23T14:18:20;10.70;99.90
21612;DHT22;47005;52.292;13.452;2024-03-23T14:20:48;10.80;99.90
21612;DHT22;47005;52.292;13.452;2024-03-23T14:23:13;11.00;99.90
21612;DHT22;47005;52.292;13.452;2024-03-23T14:25:39;11.20;99.80
21612;DHT22;47005;52.292;13.452;2024-03-23T14:28:05;11.50;99.90
21612;DHT22;47005;52.292;13.452;2024-03-23T14:30:30;11.70;99.50
21612;DHT22;47005;52.292;13.452;2024-03-23T14:32:57;11.90;98.70
21612;DHT22;47005;52.292;13.452;2024-03-23T14:35:22;12.00;97.00
21612;DHT22;47005;52.292;13.452;2024-03-23T14:37:49;12.20;97.10
21612;DHT22;47005;52.292;13.452;2024-03-23T14:40:14;12.30;96.40
21612;DHT22;47005;52.292;13.452;2024-03-23T14:42:40;12.40;97.20
21612;DHT22;47005;52.292;13.452;2024-03-23T14:45:07;12.60;97.30
21612;DHT22;47005;52.292;13.452;2024-03-23T14:47:32;12.70;96.60
21612;DHT22;47005;52.292;13.452;2024-03-23T14:49:58;12.80;96.10
21612;DHT22;47005;52.292;13.452;2024-03-23T14:52:24;13.00;95.50
21612;DHT22;47005;52.292;13.452;2024-03-23T14:54:50;13.00;94.10
21612;DHT22;47005;52.292;13.452;2024-03-23T14:57:15;13.00;94.10
21612;DHT22;47005;52.292;13.452;2024-03-23T14:59:41;13.00;94.40
21612;DHT22;47005;52.292;13.452;2024-03-23T15:02:07;12.80;94.70
21612;DHT22;47005;52.292;13.452;2024-03-23T15:04:33;12.60;93.60
21612;DHT22;47005;52.292;13.452;2024-03-23T15:06:59;12.10;96.90
21612;DHT22;47005;52.292;13.452;2024-03-23T15:09:25;11.70;99.50
21612;DHT22;47005;52.292;13.452;2024-03-23T15:11:50;11.30;99.90
21612;DHT22;47005;52.292;13.452;2024-03-23T15:14:16;11.00;99.90
21612;DHT22;47005;52.292;13.452;2024-03-23T15:16:42;10.70;99.90
21612;DHT22;47005;52.292;13.452;2024-03-23T15:19:11;10.60;99.90
21612;DHT22;47005;52.292;13.452;2024-03-23T15:21:36;10.40;99.90
21612;DHT22;47005;52.292;13.452;2024-03-23T15:24:02;10.40;99.90
21612;DHT22;47005;52.292;13.452;2024-03-23T15:26:28;10.30;99.90
21612;DHT22;47005;52.292;13.452;2024-03-23T15:28:53;10.30;99.90
21612;DHT22;47005;52.292;13.452;2024-03-23T15:31:21;10.30;99.90
21612;DHT22;47005;52.292;13.452;2024-03-23T15:33:47;10.20;99.90
21612;DHT22;47005;52.292;13.452;2024-03-23T15:36:13;10.10;99.90
21612;DHT22;47005;52.292;13.452;2024-03-23T15:38:38;10.10;99.90
21612;DHT22;47005;52.292;13.452;2024-03-23T15:41:04;10.10;99.90
21612;DHT22;47005;52.292;13.452;2024-03-23T15:43:30;10.10;99.90
21612;DHT22;47005;52.292;13.452;2024-03-23T15:45:58;10.20;99.90
21612;DHT22;47005;52.292;13.452;2024-03-23T15:48:25;10.20;99.90
21612;DHT22;47005;52.292;13.452;2024-03-23T15:50:54;10.10;99.90
21612;DHT22;47005;52.292;13.452;2024-03-23T15:53:21;10.00;99.90
21612;DHT22;47005;52.292;13.452;2024-03-23T15:56:00;9.90;99.90
21612;DHT22;47005;52.292;13.452;2024-03-23T15:58:27;9.70;99.90
21612;DHT22;47005;52.292;13.452;2024-03-23T16:01:03;9.80;99.90
21612;DHT22;47005;52.292;13.452;2024-03-23T16:03:30;9.70;99.90
21612;DHT22;47005;52.292;13.452;2024-03-23T16:06:03;9.80;99.90
21612;DHT22;47005;52.292;13.452;2024-03-23T16:08:30;9.80;99.90
21612;DHT22;47005;52.292;13.452;2024-03-23T16:11:00;9.90;99.90
21612;DHT22;47005;52.292;13.452;2024-03-23T16:13:26;9.80;99.90
21612;DHT22;47005;52.292;13.452;2024-03-23T16:16:01;9.90;99.90
21612;DHT22;47005;52.292;13.452;2024-03-23T16:18:29;9.80;99.90
21612;DHT22;47005;52.292;13.452;2024-03-23T16:20:57;9.80;99.90
21612;DHT22;47005;52.292;13.452;2024-03-23T16:23:23;9.70;99.90
21612;DHT22;47005;52.292;13.452;2024-03-23T16:25:49;9.60;99.90
21612;DHT22;47005;52.292;13.452;2024-03-23T16:28:26;9.50;99.90
21612;DHT22;47005;52.292;13.452;2024-03-23T16:31:06;9.40;99.90
21612;DHT22;47005;52.292;13.452;2024-03-23T16:33:32;9.40;99.90